Terminal Aerodrome Forecast
Issued by NWS Shreveport, LA

Home | Current Version | Previous Version | Text Only | Print | Product List | Glossary On
Versions: 1 2 3 4 5 6 7 8 9 10 11 12 13
364
FTUS44 KSHV 261759
TAFTXK
TAF
KTXK 261759Z 2618/2718 04009KT P6SM SCT025 BKN035
     FM262100 04008KT P6SM BKN035
     FM270400 04003KT P6SM SCT045 BKN100 BKN250
     FM271500 04006KT P6SM SCT150 BKN250=

USA.gov is the U.S. government's official web portal to all federal, state and local government web resources and services.